createdAt,value
2023-05-05T00:02:02.184Z,53.23
2023-05-05T00:04:28.592Z,53.31
2023-05-05T00:06:54.991Z,53.28
2023-05-05T00:09:21.370Z,53.66
2023-05-05T00:11:47.778Z,53.52
2023-05-05T00:14:14.075Z,53.94
2023-05-05T00:16:40.651Z,53.90
2023-05-05T00:19:06.997Z,53.95
2023-05-05T00:21:33.281Z,53.87
2023-05-05T00:24:07.146Z,53.90
2023-05-05T00:26:33.495Z,53.99
2023-05-05T00:29:00.171Z,54.15
2023-05-05T00:31:26.607Z,54.29
2023-05-05T00:34:01.943Z,54.81
2023-05-05T00:36:28.384Z,54.71
2023-05-05T00:38:54.775Z,54.62
2023-05-05T00:41:21.122Z,54.73
2023-05-05T00:43:47.634Z,54.69
2023-05-05T00:46:17.095Z,54.86
2023-05-05T00:48:43.495Z,54.87
2023-05-05T00:51:09.876Z,54.86
2023-05-05T00:53:36.280Z,55.13
2023-05-05T00:56:02.813Z,55.08
2023-05-05T00:58:29.801Z,55.52
2023-05-05T01:00:56.061Z,57.31
2023-05-05T01:03:25.640Z,57.35
2023-05-05T01:05:55.655Z,56.92
2023-05-05T01:08:57.725Z,57.02
2023-05-05T01:11:31.559Z,57.23
2023-05-05T01:14:18.539Z,56.85
2023-05-05T01:16:53.103Z,56.32
2023-05-05T01:19:19.458Z,56.48
2023-05-05T01:21:47.844Z,56.45
2023-05-05T01:24:33.256Z,56.41
2023-05-05T01:27:17.419Z,56.31
2023-05-05T01:29:43.769Z,56.33
2023-05-05T01:32:12.206Z,56.72
2023-05-05T01:34:43.575Z,57.54
2023-05-05T01:37:18.305Z,57.10
2023-05-05T01:39:49.331Z,57.09
2023-05-05T01:42:16.224Z,56.95
2023-05-05T01:44:43.349Z,56.95
2023-05-05T01:47:15.241Z,57.08
2023-05-05T01:49:45.379Z,57.89
2023-05-05T01:52:12.560Z,59.72
2023-05-05T01:54:39.576Z,62.12
2023-05-05T01:57:06.776Z,62.17
2023-05-05T01:59:33.589Z,59.43
2023-05-05T02:02:01.498Z,58.92
2023-05-05T02:04:28.936Z,58.52
2023-05-05T02:06:57.268Z,58.62
2023-05-05T02:09:24.858Z,58.72
2023-05-05T02:11:52.741Z,59.29
2023-05-05T02:14:20.649Z,59.58
2023-05-05T02:16:47.329Z,59.33
2023-05-05T02:19:14.220Z,59.08
2023-05-05T02:21:41.681Z,58.70
2023-05-05T02:24:08.258Z,59.27
2023-05-05T02:26:37.754Z,59.11
2023-05-05T02:29:14.346Z,58.99
2023-05-05T02:31:48.268Z,58.63
2023-05-05T02:34:19.724Z,58.59
2023-05-05T02:36:47.052Z,59.11
2023-05-05T02:39:18.419Z,59.64
2023-05-05T02:41:46.967Z,59.63
2023-05-05T02:44:22.783Z,59.95
2023-05-05T02:46:50.125Z,59.92
2023-05-05T02:49:16.859Z,59.92
2023-05-05T02:51:44.278Z,59.28
2023-05-05T02:54:17.910Z,58.87
2023-05-05T02:56:48.639Z,58.77
2023-05-05T02:59:18.780Z,58.74
2023-05-05T03:02:05.109Z,58.70
2023-05-05T03:04:41.088Z,58.71
2023-05-05T03:07:20.436Z,58.63
2023-05-05T03:09:55.275Z,58.84
2023-05-05T03:12:26.555Z,59.58
2023-05-05T03:15:00.511Z,59.76
2023-05-05T03:17:28.845Z,59.48
2023-05-05T03:19:56.549Z,59.36
2023-05-05T03:22:23.409Z,59.06
2023-05-05T03:24:50.676Z,58.83
2023-05-05T03:27:18.043Z,58.81
2023-05-05T03:29:44.382Z,58.75
2023-05-05T03:32:12.512Z,58.78
2023-05-05T03:34:39.704Z,58.82
2023-05-05T03:37:06.044Z,58.87
2023-05-05T03:39:32.887Z,58.93
2023-05-05T03:41:59.582Z,58.83
2023-05-05T03:44:28.893Z,58.82
2023-05-05T03:46:56.571Z,58.82
2023-05-05T03:49:23.053Z,58.90
2023-05-05T03:51:49.695Z,58.81
2023-05-05T03:54:16.040Z,58.71
2023-05-05T03:56:42.482Z,58.89
2023-05-05T03:59:08.835Z,59.07
2023-05-05T04:01:35.781Z,58.80
2023-05-05T04:04:02.163Z,58.64
2023-05-05T04:06:28.533Z,58.59
2023-05-05T04:08:54.963Z,58.48
2023-05-05T04:11:21.304Z,58.43
2023-05-05T04:13:47.933Z,58.45
2023-05-05T04:16:14.587Z,58.90
2023-05-05T04:18:41.125Z,59.08
2023-05-05T04:21:07.440Z,59.23
2023-05-05T04:23:33.915Z,58.86
2023-05-05T04:26:00.412Z,58.82
2023-05-05T04:28:27.130Z,58.72
2023-05-05T04:30:53.780Z,59.23
2023-05-05T04:33:20.488Z,59.71
2023-05-05T04:35:47.553Z,59.40
2023-05-05T04:38:14.551Z,59.31
2023-05-05T04:40:41.589Z,59.17
2023-05-05T04:43:08.794Z,58.46
2023-05-05T04:45:35.513Z,58.36
2023-05-05T04:48:02.236Z,58.29
2023-05-05T04:50:28.620Z,58.42
2023-05-05T04:52:55.167Z,58.41
2023-05-05T04:55:22.048Z,58.20
2023-05-05T04:57:48.454Z,58.14
2023-05-05T05:00:14.970Z,58.12
2023-05-05T05:02:41.462Z,58.28
2023-05-05T05:05:09.010Z,58.39
2023-05-05T05:07:35.568Z,58.35
2023-05-05T05:10:02.167Z,58.24
2023-05-05T05:12:28.541Z,58.36
2023-05-05T05:14:55.463Z,58.14
2023-05-05T05:17:21.778Z,58.34
2023-05-05T05:19:48.657Z,59.42
2023-05-05T05:22:15.884Z,58.37
2023-05-05T05:24:42.531Z,58.46
2023-05-05T05:27:10.101Z,58.26
2023-05-05T05:29:38.032Z,58.05
2023-05-05T05:32:05.185Z,59.44
2023-05-05T05:34:31.713Z,58.78
2023-05-05T05:36:59.291Z,58.49
2023-05-05T05:39:25.794Z,58.56
2023-05-05T05:41:52.231Z,58.16
2023-05-05T05:44:18.693Z,58.10
2023-05-05T05:46:45.215Z,57.85
2023-05-05T05:49:11.767Z,58.32
2023-05-05T05:51:38.112Z,57.88
2023-05-05T05:54:04.460Z,57.77
2023-05-05T05:56:31.287Z,57.82
2023-05-05T05:58:57.877Z,57.87
2023-05-05T06:01:24.297Z,57.88
2023-05-05T06:03:50.703Z,57.88
2023-05-05T06:06:17.978Z,57.90
2023-05-05T06:08:44.437Z,57.96
2023-05-05T06:11:11.426Z,58.02
2023-05-05T06:13:37.906Z,57.98
2023-05-05T06:16:05.419Z,57.86
2023-05-05T06:18:32.397Z,57.76
2023-05-05T06:20:58.870Z,58.01
2023-05-05T06:23:26.702Z,57.87
2023-05-05T06:25:56.920Z,58.00
2023-05-05T06:28:23.428Z,58.37
2023-05-05T06:30:49.830Z,59.87
2023-05-05T06:33:16.152Z,59.40
2023-05-05T06:35:45.694Z,59.06
2023-05-05T06:38:12.263Z,57.68
2023-05-05T06:40:38.687Z,57.22
2023-05-05T06:43:05.007Z,57.00
2023-05-05T06:45:34.871Z,56.76
2023-05-05T06:48:01.256Z,56.72
2023-05-05T06:50:27.834Z,56.45
2023-05-05T06:52:54.207Z,56.07
2023-05-05T06:55:20.813Z,55.91
2023-05-05T06:57:47.231Z,56.12
2023-05-05T07:00:13.824Z,55.42
2023-05-05T07:02:40.484Z,55.11
2023-05-05T07:05:07.022Z,54.31
2023-05-05T07:07:33.328Z,54.22
2023-05-05T07:09:59.628Z,54.06
2023-05-05T07:12:28.493Z,53.96
2023-05-05T07:14:54.903Z,53.55
2023-05-05T07:17:21.347Z,53.32
2023-05-05T07:19:47.804Z,53.00
2023-05-05T07:22:14.173Z,52.49
2023-05-05T07:24:40.831Z,51.91
2023-05-05T07:27:07.323Z,51.47
2023-05-05T07:29:33.650Z,50.87
2023-05-05T07:32:00.078Z,51.52
2023-05-05T07:34:26.421Z,51.08
2023-05-05T07:36:52.719Z,50.91
2023-05-05T07:39:19.026Z,49.66
2023-05-05T07:41:45.596Z,48.52
2023-05-05T07:44:12.184Z,47.33
2023-05-05T07:46:38.546Z,48.51
2023-05-05T07:49:05.197Z,49.07
2023-05-05T07:53:57.990Z,46.46
2023-05-05T07:56:24.474Z,46.75
2023-05-05T07:58:50.837Z,45.61
2023-05-05T08:01:17.377Z,47.20
2023-05-05T08:03:44.178Z,46.40
2023-05-05T08:06:10.683Z,47.06
2023-05-05T08:08:37.355Z,46.31
2023-05-05T08:11:03.839Z,46.74
2023-05-05T08:13:30.200Z,45.67
2023-05-05T08:15:59.147Z,44.59
2023-05-05T08:18:25.915Z,45.36
2023-05-05T08:20:52.187Z,45.21
2023-05-05T08:23:18.511Z,44.70
2023-05-05T08:25:45.149Z,46.00
2023-05-05T08:28:11.481Z,45.84
2023-05-05T08:30:38.160Z,45.74
2023-05-05T08:33:04.723Z,45.58
2023-05-05T08:35:31.238Z,44.90
2023-05-05T08:37:59.122Z,44.54
2023-05-05T08:40:29.015Z,43.76
2023-05-05T08:42:55.406Z,43.91
2023-05-05T08:45:21.784Z,43.20
2023-05-05T08:47:48.239Z,44.58
2023-05-05T08:50:16.600Z,43.59
2023-05-05T08:52:44.792Z,41.88
2023-05-05T08:55:20.658Z,41.33
2023-05-05T08:57:51.845Z,42.79
2023-05-05T09:00:19.048Z,42.29
2023-05-05T09:02:46.070Z,43.64
2023-05-05T09:05:12.832Z,43.31
2023-05-05T09:07:39.320Z,41.70
2023-05-05T09:10:07.589Z,42.32
2023-05-05T09:12:34.725Z,42.79
2023-05-05T09:15:01.149Z,41.64
2023-05-05T09:17:27.540Z,42.54
2023-05-05T09:19:59.907Z,42.06
2023-05-05T09:22:36.039Z,39.31
2023-05-05T09:25:03.312Z,40.41
2023-05-05T09:27:49.869Z,39.53
2023-05-05T09:30:17.498Z,40.67
2023-05-05T10:52:54.137Z,35.06
2023-05-05T10:55:39.075Z,33.56
2023-05-05T10:58:05.494Z,32.89
2023-05-05T11:00:38.371Z,34.01
2023-05-05T11:03:17.203Z,32.87
2023-05-05T11:06:02.667Z,35.02
2023-05-05T11:08:30.225Z,34.01
2023-05-05T11:10:56.682Z,31.77
2023-05-05T11:13:23.178Z,30.10
2023-05-05T11:15:53.411Z,30.58
2023-05-05T11:18:30.686Z,31.03
2023-05-05T11:20:57.082Z,29.46
2023-05-05T11:23:23.632Z,29.22
2023-05-05T11:25:50.230Z,27.95
2023-05-05T11:28:17.713Z,27.86
2023-05-05T11:31:10.261Z,28.83
2023-05-05T11:33:39.265Z,27.52
2023-05-05T11:36:09.792Z,27.57
2023-05-05T11:38:54.864Z,26.36
2023-05-05T11:41:30.597Z,27.54
2023-05-05T11:44:16.673Z,28.44
2023-05-05T11:46:52.382Z,26.57
2023-05-05T11:49:28.846Z,26.27
2023-05-05T11:51:58.962Z,24.56
2023-05-05T11:54:25.677Z,26.25
2023-05-05T11:56:56.810Z,24.71
2023-05-05T11:59:23.156Z,24.27
2023-05-05T12:01:49.663Z,24.15
2023-05-05T12:04:16.561Z,25.82
2023-05-05T12:06:44.097Z,23.82
2023-05-05T12:09:14.417Z,24.80
2023-05-05T12:11:47.747Z,24.54
2023-05-05T12:14:14.409Z,23.56
2023-05-05T12:16:40.858Z,23.33
2023-05-05T12:19:07.932Z,23.28
2023-05-05T12:21:35.611Z,23.82
2023-05-05T12:24:02.077Z,24.70
2023-05-05T12:26:29.414Z,25.61
2023-05-05T12:28:59.529Z,25.04
2023-05-05T12:31:35.808Z,25.91
2023-05-05T12:34:03.180Z,26.83
2023-05-05T12:36:33.063Z,26.09
2023-05-05T12:38:59.631Z,27.10
2023-05-05T12:41:26.089Z,27.52
2023-05-05T12:43:56.244Z,27.00
2023-05-05T12:46:22.965Z,24.25
2023-05-05T12:49:03.078Z,25.10
2023-05-05T12:51:32.631Z,24.19
2023-05-05T12:54:03.930Z,24.50
2023-05-05T12:56:34.119Z,24.54
2023-05-05T12:59:03.959Z,23.36
2023-05-05T13:01:30.541Z,22.28
2023-05-05T13:04:08.070Z,19.94
2023-05-05T13:06:40.954Z,18.12
2023-05-05T13:09:07.715Z,18.41
2023-05-05T13:11:34.539Z,17.37
2023-05-05T13:14:01.359Z,16.84
2023-05-05T13:16:30.505Z,18.12
2023-05-05T13:19:06.890Z,19.26
2023-05-05T13:21:35.852Z,17.13
2023-05-05T13:24:19.812Z,17.54
2023-05-05T13:26:51.934Z,17.43
2023-05-05T13:29:18.436Z,18.27
2023-05-05T13:31:45.020Z,17.80
2023-05-05T13:34:19.094Z,18.53
2023-05-05T13:36:45.500Z,17.16
2023-05-05T13:39:12.140Z,15.07
2023-05-05T13:41:38.659Z,14.36
2023-05-05T13:44:05.070Z,16.37
2023-05-05T13:46:31.568Z,15.69
2023-05-05T13:48:58.018Z,14.62
2023-05-05T13:51:24.372Z,15.25
2023-05-05T13:53:50.745Z,16.33
2023-05-05T13:56:17.216Z,16.07
2023-05-05T13:58:43.533Z,16.17
2023-05-05T14:01:09.997Z,17.40
2023-05-05T14:03:39.240Z,17.44
2023-05-05T14:06:06.095Z,16.61
2023-05-05T14:08:35.423Z,16.42
2023-05-05T14:11:01.830Z,16.12
2023-05-05T14:13:28.258Z,15.67
2023-05-05T14:15:54.800Z,15.65
2023-05-05T14:18:21.268Z,16.46
2023-05-05T14:20:47.646Z,15.51
2023-05-05T14:23:14.030Z,15.48
2023-05-05T14:25:40.528Z,15.44
2023-05-05T14:28:09.163Z,16.08
2023-05-05T14:30:35.554Z,15.82
2023-05-05T14:33:02.063Z,16.08
2023-05-05T14:35:29.131Z,16.49
2023-05-05T14:37:57.783Z,16.92
2023-05-05T14:40:24.294Z,17.65
2023-05-05T14:42:50.787Z,17.64
2023-05-05T14:45:17.160Z,16.58
2023-05-05T14:47:43.820Z,16.16
2023-05-05T14:50:10.232Z,17.20
2023-05-05T14:52:37.019Z,18.98
2023-05-05T14:55:04.401Z,19.35
2023-05-05T14:57:31.108Z,19.41
2023-05-05T14:59:57.520Z,19.56
2023-05-05T15:02:23.914Z,19.18
2023-05-05T15:04:53.846Z,18.12
2023-05-05T15:07:34.489Z,17.29
2023-05-05T15:10:00.871Z,18.04
2023-05-05T15:12:27.343Z,16.49
2023-05-05T15:15:04.413Z,16.84
2023-05-05T15:17:38.191Z,16.87
2023-05-05T15:20:15.135Z,16.78
2023-05-05T15:22:41.570Z,17.36
2023-05-05T15:25:08.618Z,17.63
2023-05-05T15:27:35.327Z,16.80
2023-05-05T15:30:01.801Z,16.01
2023-05-05T15:32:28.423Z,17.21
2023-05-05T15:34:55.077Z,17.09
2023-05-05T15:37:21.423Z,18.13
2023-05-05T15:39:47.940Z,18.36
2023-05-05T15:42:14.324Z,18.55
2023-05-05T15:44:40.707Z,18.31
2023-05-05T15:47:07.441Z,18.51
2023-05-05T15:49:41.390Z,18.49
2023-05-05T15:52:07.785Z,19.06
2023-05-05T15:54:34.183Z,18.63
2023-05-05T15:57:03.563Z,18.55
2023-05-05T15:59:37.384Z,18.13
2023-05-05T16:02:03.901Z,18.20
2023-05-05T16:04:38.916Z,19.02
2023-05-05T16:07:05.545Z,20.63
2023-05-05T16:09:31.888Z,21.94
2023-05-05T16:12:01.715Z,24.01
2023-05-05T16:14:28.448Z,25.46
2023-05-05T16:16:54.840Z,26.65
2023-05-05T16:19:23.748Z,27.19
2023-05-05T16:21:50.107Z,27.23
2023-05-05T16:24:17.053Z,28.39
2023-05-05T16:26:43.745Z,29.42
2023-05-05T16:29:10.772Z,31.56
2023-05-05T16:31:37.512Z,31.07
2023-05-05T16:34:07.079Z,30.88
2023-05-05T16:36:33.776Z,30.10
2023-05-05T16:39:00.391Z,30.07
2023-05-05T16:41:27.020Z,29.46
2023-05-05T16:43:53.436Z,28.82
2023-05-05T16:46:19.975Z,27.94
2023-05-05T16:48:46.459Z,27.04
2023-05-05T16:51:12.937Z,26.22
2023-05-05T16:53:39.399Z,27.44
2023-05-05T16:56:06.055Z,28.45
2023-05-05T16:58:32.528Z,29.33
2023-05-05T17:00:58.909Z,30.91
2023-05-05T17:03:25.329Z,31.82
2023-05-05T17:05:54.098Z,33.32
2023-05-05T17:08:20.705Z,34.25
2023-05-05T17:10:47.280Z,34.14
2023-05-05T17:13:16.105Z,35.87
2023-05-05T17:15:42.497Z,36.75
2023-05-05T17:18:09.283Z,37.37
2023-05-05T17:20:35.762Z,38.13
2023-05-05T17:23:04.741Z,37.78
2023-05-05T17:25:31.193Z,35.19
2023-05-05T17:27:57.720Z,33.50
2023-05-05T17:30:24.278Z,33.52
2023-05-05T17:32:50.917Z,33.61
2023-05-05T17:35:17.578Z,34.90
2023-05-05T17:37:44.045Z,33.75
2023-05-05T17:40:10.765Z,34.99
2023-05-05T17:42:37.062Z,34.74
2023-05-05T17:45:03.856Z,35.30
2023-05-05T17:47:30.579Z,34.69
2023-05-05T17:49:56.969Z,33.87
2023-05-05T17:52:23.790Z,33.83
2023-05-05T17:54:50.870Z,33.75
2023-05-05T17:57:18.053Z,33.82
2023-05-05T17:59:44.883Z,33.82
2023-05-05T18:02:14.435Z,33.97
2023-05-05T18:04:40.894Z,34.10
2023-05-05T18:07:07.468Z,34.20
2023-05-05T18:09:34.853Z,34.33
2023-05-05T18:12:01.462Z,34.49
2023-05-05T18:14:30.888Z,34.90
2023-05-05T18:16:57.394Z,34.89
2023-05-05T18:19:23.957Z,35.05
2023-05-05T18:21:51.262Z,35.00
2023-05-05T18:24:19.962Z,35.19
2023-05-05T18:26:48.332Z,35.49
2023-05-05T18:29:14.988Z,35.67
2023-05-05T18:31:42.206Z,35.84
2023-05-05T18:34:08.862Z,35.99
2023-05-05T18:36:35.469Z,36.21
2023-05-05T18:39:01.986Z,36.52
2023-05-05T18:41:28.564Z,36.61
2023-05-05T18:43:55.087Z,36.72
2023-05-05T18:46:21.776Z,37.43
2023-05-05T18:48:48.127Z,38.22
2023-05-05T18:51:14.619Z,37.59
2023-05-05T18:53:41.120Z,37.80
2023-05-05T18:56:07.653Z,37.83
2023-05-05T18:58:34.044Z,38.08
2023-05-05T19:01:00.909Z,38.32
2023-05-05T19:03:27.488Z,38.48
2023-05-05T19:05:55.440Z,38.57
2023-05-05T19:08:22.389Z,38.80
2023-05-05T19:10:50.213Z,38.83
2023-05-05T19:13:16.729Z,39.00
2023-05-05T19:15:43.711Z,39.19
2023-05-05T19:18:10.125Z,39.81
2023-05-05T19:20:38.980Z,39.79
2023-05-05T19:23:05.706Z,39.88
2023-05-05T19:25:33.516Z,40.00
2023-05-05T19:28:00.041Z,40.16
2023-05-05T19:30:26.751Z,40.26
2023-05-05T19:32:53.315Z,40.62
2023-05-05T19:35:19.964Z,40.70
2023-05-05T19:37:46.864Z,40.75
2023-05-05T19:40:13.632Z,40.85
2023-05-05T19:42:40.575Z,41.36
2023-05-05T19:45:08.413Z,42.26
2023-05-05T19:47:34.850Z,41.68
2023-05-05T19:50:01.422Z,41.61
2023-05-05T19:52:27.920Z,42.56
2023-05-05T19:54:54.337Z,42.14
2023-05-05T19:57:22.182Z,42.07
2023-05-05T19:59:48.805Z,42.30
2023-05-05T20:02:15.575Z,42.33
2023-05-05T20:04:42.471Z,42.57
2023-05-05T20:07:08.934Z,42.61
2023-05-05T20:09:35.305Z,42.90
2023-05-05T20:12:01.969Z,42.89
2023-05-05T20:14:30.451Z,42.99
2023-05-05T20:16:56.789Z,43.08
2023-05-05T20:19:23.517Z,43.26
2023-05-05T20:21:49.965Z,43.32
2023-05-05T20:24:16.574Z,43.52
2023-05-05T20:26:43.039Z,43.78
2023-05-05T20:29:09.616Z,43.84
2023-05-05T20:31:39.201Z,43.82
2023-05-05T20:34:05.827Z,43.99
2023-05-05T20:36:32.435Z,44.17
2023-05-05T20:38:58.830Z,44.26
2023-05-05T20:41:25.244Z,44.26
2023-05-05T20:43:52.107Z,44.37
2023-05-05T20:46:18.588Z,44.50
2023-05-05T20:48:45.104Z,44.55
2023-05-05T20:51:14.157Z,44.71
2023-05-05T20:53:40.630Z,44.73
2023-05-05T20:56:08.630Z,44.86
2023-05-05T20:58:35.526Z,45.03
2023-05-05T21:01:01.997Z,45.21
2023-05-05T21:03:31.092Z,45.55
2023-05-05T21:05:57.710Z,45.70
2023-05-05T21:08:24.196Z,45.81
2023-05-05T21:10:51.602Z,46.20
2023-05-05T21:13:18.132Z,46.11
2023-05-05T21:15:44.700Z,46.29
2023-05-05T21:18:11.642Z,46.75
2023-05-05T21:20:38.072Z,47.09
2023-05-05T21:23:04.399Z,46.88
2023-05-05T21:25:30.749Z,47.72
2023-05-05T21:27:57.179Z,47.30
2023-05-05T21:30:23.553Z,47.28
2023-05-05T21:32:50.220Z,48.42
2023-05-05T21:35:16.632Z,47.84
2023-05-05T21:37:45.566Z,47.71
2023-05-05T21:40:12.375Z,47.89
2023-05-05T21:42:39.500Z,47.75
2023-05-05T21:45:06.149Z,48.26
2023-05-05T21:47:33.311Z,49.21
2023-05-05T21:50:00.106Z,48.66
2023-05-05T21:52:26.554Z,49.55
2023-05-05T21:54:53.044Z,49.28
2023-05-05T21:57:19.435Z,49.78
2023-05-05T21:59:45.920Z,50.43
2023-05-05T22:02:12.198Z,50.81
2023-05-05T22:04:38.539Z,50.56
2023-05-05T22:07:04.967Z,51.25
2023-05-05T22:09:31.347Z,51.75
2023-05-05T22:11:57.676Z,52.22
2023-05-05T22:14:23.996Z,51.64
2023-05-05T22:16:50.760Z,52.05
2023-05-05T22:19:19.507Z,52.84
2023-05-05T22:21:45.985Z,53.24
2023-05-05T22:24:12.530Z,54.30
2023-05-05T22:26:38.814Z,54.43
2023-05-05T22:29:05.107Z,55.23
2023-05-05T22:31:31.510Z,55.04
2023-05-05T22:33:57.810Z,55.54
2023-05-05T22:36:24.243Z,56.06
2023-05-05T22:38:50.606Z,56.55
2023-05-05T22:41:16.876Z,56.14
2023-05-05T22:43:43.172Z,57.77
2023-05-05T22:46:09.602Z,57.34
2023-05-05T22:48:35.862Z,57.60
2023-05-05T22:51:02.164Z,61.40
2023-05-05T22:53:28.484Z,62.03
2023-05-05T22:55:54.812Z,62.59
2023-05-05T22:58:21.357Z,62.46
2023-05-05T23:00:47.726Z,62.70
2023-05-05T23:03:14.239Z,60.83
2023-05-05T23:05:40.584Z,62.20
2023-05-05T23:08:06.905Z,61.71
2023-05-05T23:10:33.292Z,63.52
2023-05-05T23:12:59.698Z,62.79
2023-05-05T23:15:26.153Z,63.80
2023-05-05T23:17:52.436Z,66.62
2023-05-05T23:20:18.806Z,66.28
2023-05-05T23:22:45.362Z,67.29
2023-05-05T23:25:12.073Z,66.89
2023-05-05T23:27:38.944Z,67.53
2023-05-05T23:30:06.217Z,66.62
2023-05-05T23:32:32.776Z,64.16
2023-05-05T23:34:59.128Z,63.63
2023-05-05T23:37:25.485Z,66.90
2023-05-05T23:39:51.912Z,65.29
2023-05-05T23:42:18.258Z,66.25
2023-05-05T23:44:44.624Z,67.50
2023-05-05T23:47:11.066Z,67.48
2023-05-05T23:49:37.706Z,63.65
2023-05-05T23:52:04.183Z,64.82
2023-05-05T23:54:30.517Z,63.88
2023-05-05T23:56:56.902Z,62.84
2023-05-05T23:59:23.597Z,61.42
